ADDS METAR Data INFO
IDs: Format: Raw Decoded Include TAF

Data at: 0752 UTC 17 Oct 2017

KTOL 170652Z 21004KT 10SM CLR 06/05 A3026 RMK AO2 SLP249 T00610050 $
KTOL 170552Z AUTO 20004KT 10SM CLR 06/05 A3026 RMK AO2 SLP250 T00610050 10083 20050 55002
KTOL 170452Z AUTO 19005KT 10SM CLR 07/05 A3026 RMK AO2 SLP247 T00670050 401500050
KTOL 170352Z AUTO 19003KT 10SM CLR 06/05 A3026 RMK AO2 SLP251 T00560050
KTOL 170252Z AUTO 00000KT 9SM CLR 05/05 A3027 RMK AO2 SLP253 T00500050 50000
KTOL 170152Z AUTO 00000KT 10SM CLR 07/06 A3027 RMK AO2 SLP253 T00670061
KTOL 170052Z AUTO 00000KT 10SM CLR 07/07 A3027 RMK AO2 SLP255 T00720067
KTOL 162352Z 00000KT 10SM CLR 08/07 A3027 RMK AO2 SLP252 T00830067 10150 20083 53002
KTOL 162252Z 29003KT 10SM FEW080 12/06 A3026 RMK AO2 SLP249 T01220056
KTOL 162152Z 31004KT 10SM BKN055 OVC080 14/05 A3026 RMK AO2 SLP249 T01390050
KTOL 162052Z 31005KT 10SM BKN065 OVC075 14/04 A3026 RMK AO2 SLP249 T01390044 56009
KTOL 161952Z 27003KT 10SM OVC085 14/04 A3026 RMK AO2 SLP250 T01440044
KTOL 161852Z VRB06KT 10SM BKN043 BKN055 OVC080 14/04 A3027 RMK AO2 SLP253 T01390044 $
KTOL 161752Z 33005KT 10SM FEW039 BKN048 13/04 A3029 RMK AO2 SLP258 T01280044 10139 20078 58005 $
KTOL 161652Z 29007KT 10SM FEW040 13/04 A3030 RMK AO2 SLP263 T01330044 $
KTOL 161552Z 27004KT 10SM CLR 12/03 A3031 RMK AO2 SLP266 T01220028 $
KTOL 161452Z VRB03KT 10SM CLR 11/06 A3030 RMK AO2 SLP264 T01060056 51014 $
KTOL 161352Z 34004KT 10SM FEW060 SCT080 09/06 A3030 RMK AO2 SLP264 T00940061 $
KTOL 161252Z 32003KT 10SM OVC065 08/07 A3028 RMK AO2 SLP257 T00830072 $
KTOL 161152Z 28003KT 10SM FEW044 OVC070 08/07 A3026 RMK AO2 RAE1058 SLP249 P0000 60001 70003 T00780072 10078 20056 51013 $
KTOL 161052Z 27003KT 10SM -RA OVC060 08/07 A3025 RMK AO2 SLP246 P0001 T00780072 $
KTOL 160952Z 28004KT 10SM -RA FEW050 OVC070 07/06 A3024 RMK AO2 RAB46 SLP241 P0000 T00720061 $
KTOL 160852Z 27003KT 10SM BKN100 06/05 A3022 RMK AO2 SLP236 T00560050 53012
KTOL 160752Z 27003KT 10SM CLR 06/05 A3020 RMK AO2 SLP230 T00610050
KTOL 160652Z 00000KT 10SM CLR 06/05 A3019 RMK AO2 SLP225 T00610050
KTOL 160552Z 29003KT 10SM CLR 08/06 A3019 RMK AO2 SLP223 T00780056 10128 20078 51014
KTOL 160452Z 30003KT 10SM CLR 08/06 A3018 RMK AO2 SLP220 T00830056 402330083
KTOL 160352Z 33005KT 10SM CLR 09/06 A3017 RMK AO2 SLP215 T00940056
KTOL 160252Z 31004KT 10SM CLR 10/07 A3015 RMK AO2 SLP207 T01000067 51033
KTOL 160152Z 32007KT 10SM FEW037 SCT046 11/06 A3012 RMK AO2 SLP200 T01060061
KTOL 160052Z 31008KT 10SM CLR 12/07 A3008 RMK AO2 SLP185 T01170067
KTOL 152352Z 32015G22KT 10SM SCT048 13/07 A3005 RMK AO2 SLP172 60000 T01280067 10172 20128 53039
KTOL 152252Z 30014G27KT 10SM OVC048 14/08 A3000 RMK AO2 PK WND 30027/2248 RAB16E30 SLP156 P0000 T01390083
KTOL 152233Z 31014G21KT 10SM FEW021 BKN038 OVC046 13/11 A2999 RMK AO2 RAB16E30 P0000 T01330106
KTOL 152221Z 31015G20KT 7SM -RA FEW021 BKN028 BKN035 13/11 A2998 RMK AO2 RAB16 P0000 T01330111
KTOL 152152Z 27012KT 10SM FEW028 BKN050 14/11 A2996 RMK AO2 PK WND 27028/2129 SLP142 T01440106
KTOL 152052Z 28016G24KT 10SM OVC038 15/10 A2993 RMK AO2 PK WND 29033/2000 SLP132 60000 T01500100 53033
KTOL 152019Z 27018G29KT 10SM FEW022 SCT031 BKN036 17/10 A2991 RMK AO2 PK WND 29033/2000 T01670100